Garden, MI (49835)

4:30 AM EDT on September 05, 2015 (GMT -0400)
Garden Corners, Michigan | | Change Station
CLOSE
Current Station
Personal Weather Station
Location: Garden Corners, MI
Elevation: 587 ft
Nearby Weather Stations

Elev 587 ft 45.90 °N, 86.55 °W | Updated 3 seconds ago

Mostly Cloudy
Mostly Cloudy
63.5 °F
Feels Like 63.5 °F
N
1.0
Wind Variable Wind from NNE
Gusts 6.0 mph

Today
High -- | Low -- °F
--% Chance of Precip.
Yesterday
High -- | Low -- °F
Precip. -- in
7:12 AM 8:17 PM
Waning Gibbous, 51% visible
Pressure 30.05 in
Visibility 5.0 miles
Clouds Overcast 900 ft
Dew Point 63 °F
Humidity 97%
Rainfall 0.00 in
Snow Depth Not available.
UV 0 out of 12
Pollen 9.70 out of 12
Air Quality Not available.
Flu Activity Not available.
METAR KESC 050815Z AUTO 00000KT 5SM OVC009 19/18 A3005 RMK AO1
Pressure 30.05 in
Visibility 5.0 miles
Clouds Overcast 900 ft
Dew Point 63 °F
Humidity 97%
Rainfall 0.00 in
Snow Depth Not available.
UV 0 out of 12
Pollen 9.70 out of 12
Air Quality Not available.
Flu Activity Not available.
METAR KESC 050815Z AUTO 00000KT 5SM OVC009 19/18 A3005 RMK AO1

10-Day Weather Forecast

×

Almanac

Astronomy

Sep. 05, 2015 Rise Set
Actual Time
Civil Twilight
Nautical Twilight
Astronomical Twilight
Moon
Length of Visible Light
Length of Day
Tomorrow will be .
, % of the Moon is Illuminated

Today's Extremes

State Highs State Lows

Community

WunderPhotos

Upload Photos

1,852,441 photos uploaded!

WunderBlogs® & News

Nearby

Air Quality

  Air Quality AQ Index Pollutant
Not available.

Snow Depth

Station Depth Elevation

Earthquake Activity

City Distance Mag. Time & Date
Minimum magnitude displayed is 2.5.

Coastal Water Temperatures

Place Temperature

Stations

Nearby Weather Stations

Station Location Temp. Windchill Dew Point Humidity Wind Precip. Elev Updated Type